sensor_id;sensor_type;location;lat;lon;timestamp;pressure;altitude;pressure_sealevel;temperature
12854;BMP180;6495;51.808;7.478;2022-09-29T00:01:53;99506.00;;;10.90
12854;BMP180;6495;51.808;7.478;2022-09-29T00:04:23;99506.00;;;10.90
12854;BMP180;6495;51.808;7.478;2022-09-29T00:06:55;99499.00;;;10.90
12854;BMP180;6495;51.808;7.478;2022-09-29T00:09:25;99499.00;;;10.80
12854;BMP180;6495;51.808;7.478;2022-09-29T00:11:54;99499.00;;;10.80
12854;BMP180;6495;51.808;7.478;2022-09-29T00:14:24;99493.00;;;10.80
12854;BMP180;6495;51.808;7.478;2022-09-29T00:16:52;99501.00;;;10.70
12854;BMP180;6495;51.808;7.478;2022-09-29T00:19:22;99496.00;;;10.70
12854;BMP180;6495;51.808;7.478;2022-09-29T00:21:54;99494.00;;;10.60
12854;BMP180;6495;51.808;7.478;2022-09-29T00:24:25;99496.00;;;10.50
12854;BMP180;6495;51.808;7.478;2022-09-29T00:26:56;99496.00;;;10.40
12854;BMP180;6495;51.808;7.478;2022-09-29T00:29:25;99501.00;;;10.40
12854;BMP180;6495;51.808;7.478;2022-09-29T00:32:04;99502.00;;;10.30
12854;BMP180;6495;51.808;7.478;2022-09-29T00:34:37;99509.00;;;10.30
12854;BMP180;6495;51.808;7.478;2022-09-29T00:37:06;99495.00;;;10.30
12854;BMP180;6495;51.808;7.478;2022-09-29T00:39:35;99493.00;;;10.30
12854;BMP180;6495;51.808;7.478;2022-09-29T00:42:09;99500.00;;;10.30
12854;BMP180;6495;51.808;7.478;2022-09-29T00:45:13;99495.00;;;10.40
12854;BMP180;6495;51.808;7.478;2022-09-29T00:47:49;99497.00;;;10.30
12854;BMP180;6495;51.808;7.478;2022-09-29T00:50:35;99492.00;;;10.30
12854;BMP180;6495;51.808;7.478;2022-09-29T00:53:11;99499.00;;;10.20
12854;BMP180;6495;51.808;7.478;2022-09-29T00:55:52;99499.00;;;10.20
12854;BMP180;6495;51.808;7.478;2022-09-29T00:58:31;99492.00;;;10.30
12854;BMP180;6495;51.808;7.478;2022-09-29T01:01:00;99498.00;;;10.30
12854;BMP180;6495;51.808;7.478;2022-09-29T01:03:34;99494.00;;;10.20
12854;BMP180;6495;51.808;7.478;2022-09-29T01:06:09;99489.00;;;10.20
12854;BMP180;6495;51.808;7.478;2022-09-29T01:08:46;99492.00;;;10.20
12854;BMP180;6495;51.808;7.478;2022-09-29T01:11:28;99487.00;;;10.20
12854;BMP180;6495;51.808;7.478;2022-09-29T01:13:59;99491.00;;;10.20
12854;BMP180;6495;51.808;7.478;2022-09-29T01:16:32;99493.00;;;10.20
12854;BMP180;6495;51.808;7.478;2022-09-29T01:19:08;99489.00;;;10.20
12854;BMP180;6495;51.808;7.478;2022-09-29T01:21:57;99492.00;;;10.20
12854;BMP180;6495;51.808;7.478;2022-09-29T01:25:17;99485.00;;;10.20
12854;BMP180;6495;51.808;7.478;2022-09-29T01:28:24;99485.00;;;10.10
12854;BMP180;6495;51.808;7.478;2022-09-29T01:31:16;99487.00;;;10.10
12854;BMP180;6495;51.808;7.478;2022-09-29T01:33:59;99482.00;;;10.00
12854;BMP180;6495;51.808;7.478;2022-09-29T01:36:47;99489.00;;;10.00
12854;BMP180;6495;51.808;7.478;2022-09-29T01:39:26;99487.00;;;10.00
12854;BMP180;6495;51.808;7.478;2022-09-29T01:42:18;99491.00;;;10.00
12854;BMP180;6495;51.808;7.478;2022-09-29T01:44:53;99490.00;;;9.90
12854;BMP180;6495;51.808;7.478;2022-09-29T01:47:29;99497.00;;;9.90
12854;BMP180;6495;51.808;7.478;2022-09-29T01:50:07;99494.00;;;9.90
12854;BMP180;6495;51.808;7.478;2022-09-29T01:52:48;99496.00;;;9.90
12854;BMP180;6495;51.808;7.478;2022-09-29T01:55:25;99495.00;;;9.90
12854;BMP180;6495;51.808;7.478;2022-09-29T01:58:00;99504.00;;;9.90
12854;BMP180;6495;51.808;7.478;2022-09-29T02:00:35;99499.00;;;9.90
12854;BMP180;6495;51.808;7.478;2022-09-29T02:03:15;99495.00;;;9.90
12854;BMP180;6495;51.808;7.478;2022-09-29T02:05:49;99496.00;;;9.90
12854;BMP180;6495;51.808;7.478;2022-09-29T02:08:27;99496.00;;;9.90
12854;BMP180;6495;51.808;7.478;2022-09-29T02:11:03;99489.00;;;9.90
12854;BMP180;6495;51.808;7.478;2022-09-29T02:13:37;99487.00;;;9.90
12854;BMP180;6495;51.808;7.478;2022-09-29T02:16:09;99492.00;;;9.90
12854;BMP180;6495;51.808;7.478;2022-09-29T02:18:46;99486.00;;;9.80
12854;BMP180;6495;51.808;7.478;2022-09-29T02:21:16;99495.00;;;9.80
12854;BMP180;6495;51.808;7.478;2022-09-29T02:23:44;99492.00;;;9.80
12854;BMP180;6495;51.808;7.478;2022-09-29T02:26:18;99499.00;;;9.70
12854;BMP180;6495;51.808;7.478;2022-09-29T02:28:52;99497.00;;;9.60
12854;BMP180;6495;51.808;7.478;2022-09-29T02:31:23;99501.00;;;9.60
12854;BMP180;6495;51.808;7.478;2022-09-29T02:33:56;99499.00;;;9.50
12854;BMP180;6495;51.808;7.478;2022-09-29T02:36:36;99505.00;;;9.50
12854;BMP180;6495;51.808;7.478;2022-09-29T02:39:20;99511.00;;;9.40
12854;BMP180;6495;51.808;7.478;2022-09-29T02:42:07;99512.00;;;9.30
12854;BMP180;6495;51.808;7.478;2022-09-29T02:44:59;99502.00;;;9.30
12854;BMP180;6495;51.808;7.478;2022-09-29T02:47:51;99510.00;;;9.30
12854;BMP180;6495;51.808;7.478;2022-09-29T02:50:45;99503.00;;;9.30
12854;BMP180;6495;51.808;7.478;2022-09-29T02:53:32;99501.00;;;9.20
12854;BMP180;6495;51.808;7.478;2022-09-29T02:56:09;99502.00;;;9.20
12854;BMP180;6495;51.808;7.478;2022-09-29T02:58:50;99494.00;;;9.20
12854;BMP180;6495;51.808;7.478;2022-09-29T03:01:20;99501.00;;;9.30
12854;BMP180;6495;51.808;7.478;2022-09-29T03:03:49;99504.00;;;9.30
12854;BMP180;6495;51.808;7.478;2022-09-29T03:06:19;99510.00;;;9.20
12854;BMP180;6495;51.808;7.478;2022-09-29T03:08:48;99507.00;;;9.10
12854;BMP180;6495;51.808;7.478;2022-09-29T03:11:17;99504.00;;;9.10
12854;BMP180;6495;51.808;7.478;2022-09-29T03:13:45;99503.00;;;9.10
12854;BMP180;6495;51.808;7.478;2022-09-29T03:16:14;99496.00;;;9.10
12854;BMP180;6495;51.808;7.478;2022-09-29T03:18:44;99501.00;;;9.10
12854;BMP180;6495;51.808;7.478;2022-09-29T03:21:13;99501.00;;;9.10
12854;BMP180;6495;51.808;7.478;2022-09-29T03:23:43;99498.00;;;9.10
12854;BMP180;6495;51.808;7.478;2022-09-29T03:26:12;99495.00;;;9.10
12854;BMP180;6495;51.808;7.478;2022-09-29T03:28:41;99500.00;;;9.10
12854;BMP180;6495;51.808;7.478;2022-09-29T03:31:10;99502.00;;;9.00
12854;BMP180;6495;51.808;7.478;2022-09-29T03:33:38;99504.00;;;9.00
12854;BMP180;6495;51.808;7.478;2022-09-29T03:36:08;99496.00;;;9.00
12854;BMP180;6495;51.808;7.478;2022-09-29T03:38:38;99501.00;;;9.00
12854;BMP180;6495;51.808;7.478;2022-09-29T03:41:07;99506.00;;;9.00
12854;BMP180;6495;51.808;7.478;2022-09-29T03:43:36;99509.00;;;9.00
12854;BMP180;6495;51.808;7.478;2022-09-29T03:46:04;99497.00;;;9.00
12854;BMP180;6495;51.808;7.478;2022-09-29T03:48:33;99500.00;;;9.00
12854;BMP180;6495;51.808;7.478;2022-09-29T03:51:03;99502.00;;;8.90
12854;BMP180;6495;51.808;7.478;2022-09-29T03:53:33;99509.00;;;8.90
12854;BMP180;6495;51.808;7.478;2022-09-29T03:56:04;99507.00;;;8.90
12854;BMP180;6495;51.808;7.478;2022-09-29T03:58:36;99509.00;;;8.90
12854;BMP180;6495;51.808;7.478;2022-09-29T04:01:04;99505.00;;;9.00
12854;BMP180;6495;51.808;7.478;2022-09-29T04:03:33;99504.00;;;9.00
12854;BMP180;6495;51.808;7.478;2022-09-29T04:06:04;99514.00;;;8.90
12854;BMP180;6495;51.808;7.478;2022-09-29T04:08:35;99519.00;;;8.90
12854;BMP180;6495;51.808;7.478;2022-09-29T04:11:06;99522.00;;;8.90
12854;BMP180;6495;51.808;7.478;2022-09-29T04:13:37;99522.00;;;8.90
12854;BMP180;6495;51.808;7.478;2022-09-29T04:16:13;99522.00;;;8.90
12854;BMP180;6495;51.808;7.478;2022-09-29T04:18:49;99522.00;;;8.90
12854;BMP180;6495;51.808;7.478;2022-09-29T04:21:26;99536.00;;;8.90
12854;BMP180;6495;51.808;7.478;2022-09-29T04:24:02;99523.00;;;8.90
12854;BMP180;6495;51.808;7.478;2022-09-29T04:30:53;99529.00;;;8.80
12854;BMP180;6495;51.808;7.478;2022-09-29T04:33:27;99525.00;;;8.80
12854;BMP180;6495;51.808;7.478;2022-09-29T04:36:06;99530.00;;;8.80
12854;BMP180;6495;51.808;7.478;2022-09-29T04:38:54;99532.00;;;8.70
12854;BMP180;6495;51.808;7.478;2022-09-29T04:41:39;99542.00;;;8.60
12854;BMP180;6495;51.808;7.478;2022-09-29T04:44:24;99547.00;;;8.50
12854;BMP180;6495;51.808;7.478;2022-09-29T04:47:03;99541.00;;;8.50
12854;BMP180;6495;51.808;7.478;2022-09-29T04:49:36;99544.00;;;8.40
12854;BMP180;6495;51.808;7.478;2022-09-29T04:52:22;99545.00;;;8.40
12854;BMP180;6495;51.808;7.478;2022-09-29T04:55:47;99543.00;;;8.40
12854;BMP180;6495;51.808;7.478;2022-09-29T04:58:29;99534.00;;;8.40
12854;BMP180;6495;51.808;7.478;2022-09-29T05:01:05;99546.00;;;8.40
12854;BMP180;6495;51.808;7.478;2022-09-29T05:03:37;99547.00;;;8.40
12854;BMP180;6495;51.808;7.478;2022-09-29T05:06:07;99545.00;;;8.30
12854;BMP180;6495;51.808;7.478;2022-09-29T05:08:44;99545.00;;;8.30
12854;BMP180;6495;51.808;7.478;2022-09-29T05:11:19;99551.00;;;8.30
12854;BMP180;6495;51.808;7.478;2022-09-29T05:13:52;99561.00;;;8.20
12854;BMP180;6495;51.808;7.478;2022-09-29T05:16:30;99564.00;;;8.20
12854;BMP180;6495;51.808;7.478;2022-09-29T05:19:09;99560.00;;;8.20
12854;BMP180;6495;51.808;7.478;2022-09-29T05:21:48;99560.00;;;8.20
12854;BMP180;6495;51.808;7.478;2022-09-29T05:24:22;99567.00;;;8.10
12854;BMP180;6495;51.808;7.478;2022-09-29T05:26:58;99563.00;;;8.20
12854;BMP180;6495;51.808;7.478;2022-09-29T05:29:27;99570.00;;;8.10
12854;BMP180;6495;51.808;7.478;2022-09-29T05:32:02;99575.00;;;8.10
12854;BMP180;6495;51.808;7.478;2022-09-29T05:34:43;99576.00;;;8.10
12854;BMP180;6495;51.808;7.478;2022-09-29T05:37:17;99576.00;;;8.10
12854;BMP180;6495;51.808;7.478;2022-09-29T05:39:51;99572.00;;;8.10
12854;BMP180;6495;51.808;7.478;2022-09-29T05:42:28;99578.00;;;8.10
12854;BMP180;6495;51.808;7.478;2022-09-29T05:45:04;99573.00;;;8.10
12854;BMP180;6495;51.808;7.478;2022-09-29T05:47:53;99579.00;;;8.10
12854;BMP180;6495;51.808;7.478;2022-09-29T05:50:32;99584.00;;;8.10
12854;BMP180;6495;51.808;7.478;2022-09-29T05:53:22;99581.00;;;8.10
12854;BMP180;6495;51.808;7.478;2022-09-29T05:56:02;99581.00;;;8.00
12854;BMP180;6495;51.808;7.478;2022-09-29T05:58:33;99594.00;;;8.00
12854;BMP180;6495;51.808;7.478;2022-09-29T06:01:08;99591.00;;;8.00
12854;BMP180;6495;51.808;7.478;2022-09-29T06:03:39;99593.00;;;8.00
12854;BMP180;6495;51.808;7.478;2022-09-29T06:06:23;99591.00;;;8.00
12854;BMP180;6495;51.808;7.478;2022-09-29T06:08:52;99591.00;;;8.00
12854;BMP180;6495;51.808;7.478;2022-09-29T06:11:29;99592.00;;;8.00
12854;BMP180;6495;51.808;7.478;2022-09-29T06:14:11;99587.00;;;8.00
12854;BMP180;6495;51.808;7.478;2022-09-29T06:16:44;99594.00;;;8.00
12854;BMP180;6495;51.808;7.478;2022-09-29T06:19:16;99593.00;;;8.00
12854;BMP180;6495;51.808;7.478;2022-09-29T06:21:52;99589.00;;;8.00
12854;BMP180;6495;51.808;7.478;2022-09-29T06:24:27;99596.00;;;8.00
12854;BMP180;6495;51.808;7.478;2022-09-29T06:27:07;99597.00;;;8.00
12854;BMP180;6495;51.808;7.478;2022-09-29T06:29:40;99604.00;;;8.00
12854;BMP180;6495;51.808;7.478;2022-09-29T06:32:11;99598.00;;;8.00
12854;BMP180;6495;51.808;7.478;2022-09-29T06:34:44;99598.00;;;8.00
12854;BMP180;6495;51.808;7.478;2022-09-29T06:37:35;99604.00;;;8.10
12854;BMP180;6495;51.808;7.478;2022-09-29T06:40:10;99605.00;;;8.10
12854;BMP180;6495;51.808;7.478;2022-09-29T06:42:41;99603.00;;;8.10
12854;BMP180;6495;51.808;7.478;2022-09-29T06:45:24;99605.00;;;8.10
12854;BMP180;6495;51.808;7.478;2022-09-29T06:48:04;99614.00;;;8.10
12854;BMP180;6495;51.808;7.478;2022-09-29T06:50:45;99620.00;;;8.10
12854;BMP180;6495;51.808;7.478;2022-09-29T06:53:36;99619.00;;;8.10
12854;BMP180;6495;51.808;7.478;2022-09-29T06:56:16;99620.00;;;8.10
12854;BMP180;6495;51.808;7.478;2022-09-29T06:58:49;99620.00;;;8.20
12854;BMP180;6495;51.808;7.478;2022-09-29T07:01:32;99624.00;;;8.20
12854;BMP180;6495;51.808;7.478;2022-09-29T07:04:10;99622.00;;;8.30
12854;BMP180;6495;51.808;7.478;2022-09-29T07:06:50;99632.00;;;8.30
12854;BMP180;6495;51.808;7.478;2022-09-29T07:09:39;99632.00;;;8.40
12854;BMP180;6495;51.808;7.478;2022-09-29T07:12:20;99638.00;;;8.40
12854;BMP180;6495;51.808;7.478;2022-09-29T07:15:12;99647.00;;;8.40
12854;BMP180;6495;51.808;7.478;2022-09-29T07:18:01;99637.00;;;8.40
12854;BMP180;6495;51.808;7.478;2022-09-29T07:20:50;99644.00;;;8.50
12854;BMP180;6495;51.808;7.478;2022-09-29T07:23:28;99651.00;;;8.40
12854;BMP180;6495;51.808;7.478;2022-09-29T07:26:16;99650.00;;;8.40
12854;BMP180;6495;51.808;7.478;2022-09-29T07:28:58;99662.00;;;8.50
12854;BMP180;6495;51.808;7.478;2022-09-29T07:31:47;99647.00;;;8.50
12854;BMP180;6495;51.808;7.478;2022-09-29T07:34:42;99656.00;;;8.60
12854;BMP180;6495;51.808;7.478;2022-09-29T07:37:38;99661.00;;;8.70
12854;BMP180;6495;51.808;7.478;2022-09-29T07:40:24;99662.00;;;8.70
12854;BMP180;6495;51.808;7.478;2022-09-29T07:43:12;99666.00;;;8.80
12854;BMP180;6495;51.808;7.478;2022-09-29T07:46:37;99667.00;;;8.90
12854;BMP180;6495;51.808;7.478;2022-09-29T07:49:29;99671.00;;;9.00
12854;BMP180;6495;51.808;7.478;2022-09-29T07:52:40;99669.00;;;9.20
12854;BMP180;6495;51.808;7.478;2022-09-29T07:55:37;99679.00;;;9.30
12854;BMP180;6495;51.808;7.478;2022-09-29T07:58:29;99672.00;;;9.50
12854;BMP180;6495;51.808;7.478;2022-09-29T08:01:17;99690.00;;;9.70
12854;BMP180;6495;51.808;7.478;2022-09-29T08:04:39;99688.00;;;9.90
12854;BMP180;6495;51.808;7.478;2022-09-29T08:08:06;99691.00;;;10.10
12854;BMP180;6495;51.808;7.478;2022-09-29T08:15:58;99704.00;;;10.60
12854;BMP180;6495;51.808;7.478;2022-09-29T08:20:18;99700.00;;;10.80
12854;BMP180;6495;51.808;7.478;2022-09-29T08:24:21;99713.00;;;11.00
12854;BMP180;6495;51.808;7.478;2022-09-29T08:27:53;99714.00;;;11.20
12854;BMP180;6495;51.808;7.478;2022-09-29T08:31:40;99710.00;;;11.50
12854;BMP180;6495;51.808;7.478;2022-09-29T08:35:17;99721.00;;;11.70
12854;BMP180;6495;51.808;7.478;2022-09-29T09:58:56;99765.00;;;15.70
12854;BMP180;6495;51.808;7.478;2022-09-29T10:01:27;99763.00;;;15.80
12854;BMP180;6495;51.808;7.478;2022-09-29T10:03:57;99767.00;;;15.90
12854;BMP180;6495;51.808;7.478;2022-09-29T10:06:27;99765.00;;;16.00
12854;BMP180;6495;51.808;7.478;2022-09-29T10:08:56;99761.00;;;16.10
12854;BMP180;6495;51.808;7.478;2022-09-29T10:11:27;99767.00;;;16.30
12854;BMP180;6495;51.808;7.478;2022-09-29T10:14:03;99770.00;;;16.50
12854;BMP180;6495;51.808;7.478;2022-09-29T10:16:39;99776.00;;;16.60
12854;BMP180;6495;51.808;7.478;2022-09-29T10:19:08;99775.00;;;16.70
12854;BMP180;6495;51.808;7.478;2022-09-29T10:21:39;99784.00;;;16.80
12854;BMP180;6495;51.808;7.478;2022-09-29T10:24:23;99766.00;;;16.80
12854;BMP180;6495;51.808;7.478;2022-09-29T10:26:55;99773.00;;;17.00
12854;BMP180;6495;51.808;7.478;2022-09-29T10:29:35;99770.00;;;17.10
12854;BMP180;6495;51.808;7.478;2022-09-29T10:32:08;99776.00;;;17.30
12854;BMP180;6495;51.808;7.478;2022-09-29T10:34:40;99779.00;;;17.40
12854;BMP180;6495;51.808;7.478;2022-09-29T10:37:21;99785.00;;;17.40
12854;BMP180;6495;51.808;7.478;2022-09-29T10:40:08;99773.00;;;17.50
12854;BMP180;6495;51.808;7.478;2022-09-29T10:42:42;99774.00;;;17.60
12854;BMP180;6495;51.808;7.478;2022-09-29T10:45:16;99778.00;;;17.70
12854;BMP180;6495;51.808;7.478;2022-09-29T10:47:47;99786.00;;;17.80
12854;BMP180;6495;51.808;7.478;2022-09-29T10:50:19;99782.00;;;17.70
12854;BMP180;6495;51.808;7.478;2022-09-29T10:52:52;99782.00;;;17.70
12854;BMP180;6495;51.808;7.478;2022-09-29T10:55:24;99787.00;;;17.80
12854;BMP180;6495;51.808;7.478;2022-09-29T10:57:56;99786.00;;;17.90
12854;BMP180;6495;51.808;7.478;2022-09-29T11:00:30;99789.00;;;18.10
12854;BMP180;6495;51.808;7.478;2022-09-29T11:03:07;99791.00;;;18.30
12854;BMP180;6495;51.808;7.478;2022-09-29T11:05:52;99793.00;;;18.50
12854;BMP180;6495;51.808;7.478;2022-09-29T11:08:21;99790.00;;;18.60
12854;BMP180;6495;51.808;7.478;2022-09-29T11:11:05;99794.00;;;18.70
12854;BMP180;6495;51.808;7.478;2022-09-29T11:13:39;99793.00;;;18.80
12854;BMP180;6495;51.808;7.478;2022-09-29T11:16:17;99798.00;;;19.00
12854;BMP180;6495;51.808;7.478;2022-09-29T11:18:49;99804.00;;;19.00
12854;BMP180;6495;51.808;7.478;2022-09-29T11:24:58;99807.00;;;19.10
12854;BMP180;6495;51.808;7.478;2022-09-29T11:27:44;99804.00;;;19.00
12854;BMP180;6495;51.808;7.478;2022-09-29T11:30:19;99809.00;;;19.00
12854;BMP180;6495;51.808;7.478;2022-09-29T11:33:16;99807.00;;;19.10
12854;BMP180;6495;51.808;7.478;2022-09-29T11:35:53;99811.00;;;19.10
12854;BMP180;6495;51.808;7.478;2022-09-29T11:38:55;99812.00;;;19.10
12854;BMP180;6495;51.808;7.478;2022-09-29T11:41:52;99821.00;;;19.10
12854;BMP180;6495;51.808;7.478;2022-09-29T11:44:47;99808.00;;;18.90
12854;BMP180;6495;51.808;7.478;2022-09-29T11:47:49;99817.00;;;19.00
12854;BMP180;6495;51.808;7.478;2022-09-29T11:50:31;99817.00;;;19.00
12854;BMP180;6495;51.808;7.478;2022-09-29T11:53:26;99824.00;;;18.90
12854;BMP180;6495;51.808;7.478;2022-09-29T11:56:22;99823.00;;;18.90
12854;BMP180;6495;51.808;7.478;2022-09-29T11:59:33;99822.00;;;19.00
12854;BMP180;6495;51.808;7.478;2022-09-29T12:02:38;99828.00;;;19.00
12854;BMP180;6495;51.808;7.478;2022-09-29T12:05:18;99835.00;;;19.00
12854;BMP180;6495;51.808;7.478;2022-09-29T12:08:01;99829.00;;;18.90
12854;BMP180;6495;51.808;7.478;2022-09-29T12:10:47;99826.00;;;18.90
12854;BMP180;6495;51.808;7.478;2022-09-29T12:13:29;99827.00;;;18.70
12854;BMP180;6495;51.808;7.478;2022-09-29T12:16:06;99827.00;;;18.60
12854;BMP180;6495;51.808;7.478;2022-09-29T12:18:41;99829.00;;;18.50
12854;BMP180;6495;51.808;7.478;2022-09-29T12:21:12;99826.00;;;18.40
12854;BMP180;6495;51.808;7.478;2022-09-29T12:23:46;99822.00;;;18.30
12854;BMP180;6495;51.808;7.478;2022-09-29T12:26:20;99826.00;;;18.30
12854;BMP180;6495;51.808;7.478;2022-09-29T12:28:53;99827.00;;;18.30
12854;BMP180;6495;51.808;7.478;2022-09-29T12:31:29;99830.00;;;18.30
12854;BMP180;6495;51.808;7.478;2022-09-29T12:34:04;99824.00;;;18.30
12854;BMP180;6495;51.808;7.478;2022-09-29T12:36:45;99824.00;;;18.30
12854;BMP180;6495;51.808;7.478;2022-09-29T12:39:36;99826.00;;;18.30
12854;BMP180;6495;51.808;7.478;2022-09-29T12:42:28;99822.00;;;18.30
12854;BMP180;6495;51.808;7.478;2022-09-29T12:45:05;99823.00;;;18.30
12854;BMP180;6495;51.808;7.478;2022-09-29T12:47:55;99826.00;;;18.30
12854;BMP180;6495;51.808;7.478;2022-09-29T12:50:29;99825.00;;;18.20
12854;BMP180;6495;51.808;7.478;2022-09-29T12:53:08;99826.00;;;18.20
12854;BMP180;6495;51.808;7.478;2022-09-29T12:55:48;99828.00;;;18.20
12854;BMP180;6495;51.808;7.478;2022-09-29T12:58:25;99823.00;;;18.10
12854;BMP180;6495;51.808;7.478;2022-09-29T13:01:13;99823.00;;;18.00
12854;BMP180;6495;51.808;7.478;2022-09-29T13:13:44;99813.00;;;18.00
12854;BMP180;6495;51.808;7.478;2022-09-29T13:16:36;99825.00;;;18.00
12854;BMP180;6495;51.808;7.478;2022-09-29T13:19:47;99830.00;;;18.00
12854;BMP180;6495;51.808;7.478;2022-09-29T13:22:46;99826.00;;;18.10
12854;BMP180;6495;51.808;7.478;2022-09-29T13:25:25;99836.00;;;18.10
12854;BMP180;6495;51.808;7.478;2022-09-29T13:27:59;99823.00;;;18.10
12854;BMP180;6495;51.808;7.478;2022-09-29T13:30:32;99826.00;;;18.20
12854;BMP180;6495;51.808;7.478;2022-09-29T13:33:09;99834.00;;;18.20
12854;BMP180;6495;51.808;7.478;2022-09-29T13:35:41;99826.00;;;18.20
12854;BMP180;6495;51.808;7.478;2022-09-29T13:38:16;99827.00;;;18.10
12854;BMP180;6495;51.808;7.478;2022-09-29T13:41:12;99824.00;;;18.10
12854;BMP180;6495;51.808;7.478;2022-09-29T13:44:04;99840.00;;;18.10
12854;BMP180;6495;51.808;7.478;2022-09-29T13:46:39;99842.00;;;18.20
12854;BMP180;6495;51.808;7.478;2022-09-29T13:49:26;99837.00;;;18.20
12854;BMP180;6495;51.808;7.478;2022-09-29T13:51:57;99834.00;;;18.20
12854;BMP180;6495;51.808;7.478;2022-09-29T13:54:38;99835.00;;;18.20
12854;BMP180;6495;51.808;7.478;2022-09-29T13:57:31;99840.00;;;18.20
12854;BMP180;6495;51.808;7.478;2022-09-29T14:00:19;99840.00;;;18.30
12854;BMP180;6495;51.808;7.478;2022-09-29T14:03:04;99843.00;;;18.40
12854;BMP180;6495;51.808;7.478;2022-09-29T14:06:03;99839.00;;;18.40
12854;BMP180;6495;51.808;7.478;2022-09-29T14:08:59;99851.00;;;18.50
12854;BMP180;6495;51.808;7.478;2022-09-29T14:11:34;99849.00;;;18.50
12854;BMP180;6495;51.808;7.478;2022-09-29T14:14:08;99851.00;;;18.50
12854;BMP180;6495;51.808;7.478;2022-09-29T14:16:52;99855.00;;;18.60
12854;BMP180;6495;51.808;7.478;2022-09-29T14:19:36;99855.00;;;18.60
12854;BMP180;6495;51.808;7.478;2022-09-29T14:25:53;99857.00;;;18.50
12854;BMP180;6495;51.808;7.478;2022-09-29T14:28:42;99862.00;;;18.50
12854;BMP180;6495;51.808;7.478;2022-09-29T14:31:21;99865.00;;;18.40
12854;BMP180;6495;51.808;7.478;2022-09-29T14:33:51;99867.00;;;18.40
12854;BMP180;6495;51.808;7.478;2022-09-29T14:36:23;99861.00;;;18.40
12854;BMP180;6495;51.808;7.478;2022-09-29T14:38:55;99869.00;;;18.40
12854;BMP180;6495;51.808;7.478;2022-09-29T14:41:47;99873.00;;;18.30
12854;BMP180;6495;51.808;7.478;2022-09-29T14:44:22;99865.00;;;18.40
12854;BMP180;6495;51.808;7.478;2022-09-29T14:47:20;99869.00;;;18.40
12854;BMP180;6495;51.808;7.478;2022-09-29T14:50:45;99873.00;;;18.30
12854;BMP180;6495;51.808;7.478;2022-09-29T14:53:55;99881.00;;;18.40
12854;BMP180;6495;51.808;7.478;2022-09-29T14:56:47;99875.00;;;18.40
12854;BMP180;6495;51.808;7.478;2022-09-29T14:59:33;99882.00;;;18.30
12854;BMP180;6495;51.808;7.478;2022-09-29T15:02:19;99884.00;;;18.30
12854;BMP180;6495;51.808;7.478;2022-09-29T15:04:49;99873.00;;;18.40
12854;BMP180;6495;51.808;7.478;2022-09-29T15:07:20;99886.00;;;18.40
12854;BMP180;6495;51.808;7.478;2022-09-29T15:09:52;99886.00;;;18.40
12854;BMP180;6495;51.808;7.478;2022-09-29T15:12:23;99893.00;;;18.50
12854;BMP180;6495;51.808;7.478;2022-09-29T15:14:54;99891.00;;;18.50
12854;BMP180;6495;51.808;7.478;2022-09-29T15:17:46;99889.00;;;18.60
12854;BMP180;6495;51.808;7.478;2022-09-29T15:20:21;99893.00;;;18.60
12854;BMP180;6495;51.808;7.478;2022-09-29T15:26:21;99890.00;;;18.80
12854;BMP180;6495;51.808;7.478;2022-09-29T15:28:49;99888.00;;;18.90
12854;BMP180;6495;51.808;7.478;2022-09-29T15:31:26;99884.00;;;19.00
12854;BMP180;6495;51.808;7.478;2022-09-29T15:33:55;99898.00;;;19.00
12854;BMP180;6495;51.808;7.478;2022-09-29T15:36:27;99893.00;;;19.00
12854;BMP180;6495;51.808;7.478;2022-09-29T15:39:03;99889.00;;;19.10
12854;BMP180;6495;51.808;7.478;2022-09-29T15:41:34;99895.00;;;19.10
12854;BMP180;6495;51.808;7.478;2022-09-29T15:44:11;99899.00;;;19.20
12854;BMP180;6495;51.808;7.478;2022-09-29T15:46:48;99904.00;;;19.20
12854;BMP180;6495;51.808;7.478;2022-09-29T15:49:19;99906.00;;;19.10
12854;BMP180;6495;51.808;7.478;2022-09-29T15:51:57;99910.00;;;19.00
12854;BMP180;6495;51.808;7.478;2022-09-29T15:54:29;99912.00;;;18.80
12854;BMP180;6495;51.808;7.478;2022-09-29T15:57:05;99909.00;;;18.80
12854;BMP180;6495;51.808;7.478;2022-09-29T15:59:52;99917.00;;;18.70
12854;BMP180;6495;51.808;7.478;2022-09-29T16:02:29;99922.00;;;18.70
12854;BMP180;6495;51.808;7.478;2022-09-29T16:05:05;99926.00;;;18.60
12854;BMP180;6495;51.808;7.478;2022-09-29T16:07:37;99932.00;;;18.50
12854;BMP180;6495;51.808;7.478;2022-09-29T16:10:13;99935.00;;;18.50
12854;BMP180;6495;51.808;7.478;2022-09-29T16:12:51;99930.00;;;18.40
12854;BMP180;6495;51.808;7.478;2022-09-29T16:15:29;99932.00;;;18.40
12854;BMP180;6495;51.808;7.478;2022-09-29T16:18:01;99932.00;;;18.30
12854;BMP180;6495;51.808;7.478;2022-09-29T16:20:34;99942.00;;;18.30
12854;BMP180;6495;51.808;7.478;2022-09-29T16:23:07;99947.00;;;18.20
12854;BMP180;6495;51.808;7.478;2022-09-29T16:25:35;99950.00;;;18.20
12854;BMP180;6495;51.808;7.478;2022-09-29T16:28:22;99953.00;;;18.20
12854;BMP180;6495;51.808;7.478;2022-09-29T16:31:02;99955.00;;;18.10
12854;BMP180;6495;51.808;7.478;2022-09-29T16:33:33;99961.00;;;18.10
12854;BMP180;6495;51.808;7.478;2022-09-29T16:36:05;99964.00;;;18.10
12854;BMP180;6495;51.808;7.478;2022-09-29T16:38:38;99967.00;;;18.00
12854;BMP180;6495;51.808;7.478;2022-09-29T16:41:13;99966.00;;;18.00
12854;BMP180;6495;51.808;7.478;2022-09-29T16:43:45;99969.00;;;18.00
12854;BMP180;6495;51.808;7.478;2022-09-29T16:46:19;99971.00;;;17.90
12854;BMP180;6495;51.808;7.478;2022-09-29T16:48:49;99975.00;;;17.90
12854;BMP180;6495;51.808;7.478;2022-09-29T16:51:20;99977.00;;;17.90
12854;BMP180;6495;51.808;7.478;2022-09-29T16:54:07;99981.00;;;17.80
12854;BMP180;6495;51.808;7.478;2022-09-29T16:56:36;99975.00;;;17.80
12854;BMP180;6495;51.808;7.478;2022-09-29T16:59:11;99988.00;;;17.70
12854;BMP180;6495;51.808;7.478;2022-09-29T17:01:42;99981.00;;;17.60
12854;BMP180;6495;51.808;7.478;2022-09-29T17:04:10;99983.00;;;17.60
12854;BMP180;6495;51.808;7.478;2022-09-29T17:06:44;99987.00;;;17.50
12854;BMP180;6495;51.808;7.478;2022-09-29T17:09:18;99987.00;;;17.40
12854;BMP180;6495;51.808;7.478;2022-09-29T17:11:47;99986.00;;;17.40
12854;BMP180;6495;51.808;7.478;2022-09-29T17:14:17;99989.00;;;17.30
12854;BMP180;6495;51.808;7.478;2022-09-29T17:16:47;99989.00;;;17.20
12854;BMP180;6495;51.808;7.478;2022-09-29T17:19:19;99988.00;;;17.10
12854;BMP180;6495;51.808;7.478;2022-09-29T17:21:48;99989.00;;;17.00
12854;BMP180;6495;51.808;7.478;2022-09-29T17:24:17;99995.00;;;16.90
12854;BMP180;6495;51.808;7.478;2022-09-29T17:26:45;99999.00;;;16.80
12854;BMP180;6495;51.808;7.478;2022-09-29T17:29:32;99994.00;;;16.70
12854;BMP180;6495;51.808;7.478;2022-09-29T17:32:02;100001.00;;;16.60